サンティアゴ の空港の天気 - METARとTAF

アルトゥーロ・メリノ・ベニテス国際空港(サンティアゴ) ( SCEL / SCL ) - チリ サンティアゴ
飛行場実況気象(Metar)
観測時間03/26 16:00 CLST (03/26 19:00 UTC)
風向・風速南 7m/s
視程10km以上
天気現象
なし
気温28℃
湿度27%
気圧1010hPa
METARSCEL 261900Z 17013KT CAVOK 28/07 Q1010 NOSIG
過去の天気等 Google飛行場航空写真 Wunderground天気予報

過去48時間のMETAR

飛行場予報(TAF)
発表時間: 3/26 13:09 CLST (3/26 16:09 UTC)
予報対象時間: 26日15時 CLST ~ 27日15時 CLST
風向・風速南南西 6m/s
視程10km以上
なし
26日22時 CLST ~ 26日24時 CLST に徐々に
風向・風速南南東 3m/s
27日3時 CLST ~ 27日11時 CLST に一時的に
風向・風速不定 1m/s
視程6000m
なし
27日13時 CLST ~ 27日15時 CLST に徐々に
風向・風速南 4m/s
TAF SCEL 261609Z 2618/2718 20012KT CAVOK TX29/2619Z TN10/2711Z
BECMG 2701/2703 15006KT
TEMPO 2706/2714 VRB02KT 6000 NSC
BECMG 2716/2718 18008KT